createdAt,value
2018-02-13T00:00:34.068Z,1005.40
2018-02-13T00:01:39.084Z,1005.42
2018-02-13T00:02:48.615Z,1005.42
2018-02-13T00:03:59.383Z,1005.40
2018-02-13T00:05:11.268Z,1005.38
2018-02-13T00:06:05.838Z,1005.42
2018-02-13T00:07:11.587Z,1005.38
2018-02-13T00:08:18.962Z,1005.43
2018-02-13T00:10:26.349Z,1005.38
2018-02-13T00:11:34.082Z,1005.40
2018-02-13T00:12:44.792Z,1005.38
2018-02-13T00:13:40.397Z,1005.39
2018-02-13T00:14:53.203Z,1005.37
2018-02-13T00:16:00.071Z,1005.37
2018-02-13T00:17:03.869Z,1005.35
2018-02-13T00:18:05.718Z,1005.35
2018-02-13T00:19:11.769Z,1005.36
2018-02-13T00:20:16.689Z,1005.42
2018-02-13T00:21:15.978Z,1005.38
2018-02-13T00:22:24.382Z,1005.41
2018-02-13T00:23:30.537Z,1005.39
2018-02-13T00:24:42.624Z,1005.40
2018-02-13T00:25:43.963Z,1005.34
2018-02-13T00:26:55.132Z,1005.35
2018-02-13T00:27:56.263Z,1005.33
2018-02-13T00:30:11.650Z,1005.37
2018-02-13T00:31:04.279Z,1005.37
2018-02-13T00:32:12.881Z,1005.35
2018-02-13T00:33:17.189Z,1005.33
2018-02-13T00:34:30.712Z,1005.32
2018-02-13T00:35:30.209Z,1005.27
2018-02-13T00:36:40.966Z,1005.32
2018-02-13T00:37:51.930Z,1005.30
2018-02-13T00:38:51.326Z,1005.37
2018-02-13T00:40:00.348Z,1005.36
2018-02-13T00:41:02.196Z,1005.31
2018-02-13T00:42:00.049Z,1005.36
2018-02-13T00:43:08.042Z,1005.33
2018-02-13T00:44:19.722Z,1005.30
2018-02-13T00:45:26.927Z,1005.33
2018-02-13T00:46:25.983Z,1005.30
2018-02-13T00:47:29.880Z,1005.29
2018-02-13T00:48:43.830Z,1005.32
2018-02-13T00:49:46.894Z,1005.33
2018-02-13T00:50:53.353Z,1005.29
2018-02-13T00:51:59.300Z,1005.31
2018-02-13T00:52:57.462Z,1005.30
2018-02-13T00:53:58.902Z,1005.23
2018-02-13T00:56:10.694Z,1005.23
2018-02-13T00:57:21.145Z,1005.24
2018-02-13T00:58:28.935Z,1005.20
2018-02-13T00:59:30.171Z,1005.19
2018-02-13T01:00:43.591Z,1005.16
2018-02-13T01:01:53.531Z,1005.23
2018-02-13T01:02:47.945Z,1005.21
2018-02-13T01:03:50.992Z,1005.18
2018-02-13T01:05:05.030Z,1005.20
2018-02-13T01:06:05.542Z,1005.17
2018-02-13T01:07:08.314Z,1005.15
2018-02-13T01:09:21.953Z,1005.10
2018-02-13T01:10:28.506Z,1005.13
2018-02-13T01:11:31.072Z,1005.16
2018-02-13T01:12:31.094Z,1005.19
2018-02-13T01:13:48.303Z,1005.17
2018-02-13T01:14:49.013Z,1005.13
2018-02-13T01:15:51.887Z,1005.13
2018-02-13T01:16:58.346Z,1005.19
2018-02-13T01:18:04.395Z,1005.12
2018-02-13T01:19:10.351Z,1005.12
2018-02-13T01:20:24.685Z,1005.21
2018-02-13T01:21:32.371Z,1005.17
2018-02-13T01:22:27.462Z,1005.19
2018-02-13T01:23:36.174Z,1005.14
2018-02-13T01:25:41.615Z,1005.18
2018-02-13T01:26:52.477Z,1005.18
2018-02-13T01:28:04.361Z,1005.17
2018-02-13T01:28:57.200Z,1005.19
2018-02-13T01:30:04.376Z,1005.17
2018-02-13T01:31:15.647Z,1005.18
2018-02-13T01:32:20.366Z,1005.16
2018-02-13T01:33:21.394Z,1005.17
2018-02-13T01:34:25.908Z,1005.15
2018-02-13T01:35:35.645Z,1005.12
2018-02-13T01:36:34.626Z,1005.16
2018-02-13T01:37:41.809Z,1005.17
2018-02-13T01:39:01.475Z,1005.14
2018-02-13T01:39:56.868Z,1005.14
2018-02-13T01:41:06.193Z,1005.16
2018-02-13T01:42:11.630Z,1005.15
2018-02-13T01:43:10.508Z,1005.14
2018-02-13T01:44:18.297Z,1005.12
2018-02-13T01:45:23.834Z,1005.13
2018-02-13T01:47:35.013Z,1005.15
2018-02-13T01:49:48.847Z,1005.12
2018-02-13T01:50:47.420Z,1005.14
2018-02-13T01:51:59.719Z,1005.13
2018-02-13T01:53:02.488Z,1005.14
2018-02-13T01:54:05.267Z,1005.16
2018-02-13T01:55:14.281Z,1005.15
2018-02-13T01:56:22.681Z,1005.13
2018-02-13T01:57:19.821Z,1005.12
2018-02-13T01:59:31.407Z,1005.12
2018-02-13T02:00:40.118Z,1005.07
2018-02-13T02:02:58.565Z,1005.06
2018-02-13T02:04:00.618Z,1005.09
2018-02-13T02:05:03.288Z,1005.07
2018-02-13T02:06:10.984Z,1005.12
2018-02-13T02:07:17.947Z,1005.08
2018-02-13T02:08:20.523Z,1005.09
2018-02-13T02:09:25.436Z,1005.10
2018-02-13T02:10:29.335Z,1005.07
2018-02-13T02:11:31.191Z,1005.09
2018-02-13T02:12:46.960Z,1005.03
2018-02-13T02:13:45.535Z,1005.06
2018-02-13T02:15:58.861Z,1005.06
2018-02-13T02:17:09.106Z,1005.06
2018-02-13T02:18:05.118Z,1005.07
2018-02-13T02:19:14.343Z,1005.07
2018-02-13T02:20:22.441Z,1005.05
2018-02-13T02:21:31.562Z,1005.02
2018-02-13T02:22:31.876Z,1005.00
2018-02-13T02:23:32.500Z,1005.06
2018-02-13T02:24:45.405Z,1005.02
2018-02-13T02:25:42.074Z,1005.02
2018-02-13T02:26:49.985Z,1005.02
2018-02-13T02:28:00.793Z,1004.98
2018-02-13T02:29:05.298Z,1004.99
2018-02-13T02:30:08.891Z,1004.99
2018-02-13T02:31:16.170Z,1005.02
2018-02-13T02:32:21.806Z,1004.95
2018-02-13T02:33:26.525Z,1004.95
2018-02-13T02:34:29.602Z,1004.95
2018-02-13T02:35:39.338Z,1004.92
2018-02-13T02:36:47.029Z,1004.87
2018-02-13T02:37:44.070Z,1004.90
2018-02-13T02:38:59.637Z,1004.91
2018-02-13T02:40:02.613Z,1004.88
2018-02-13T02:41:13.985Z,1004.85
2018-02-13T02:43:19.527Z,1004.90
2018-02-13T02:44:22.614Z,1004.86
2018-02-13T02:45:28.245Z,1004.87
2018-02-13T02:46:33.887Z,1004.85
2018-02-13T02:47:41.989Z,1004.85
2018-02-13T02:48:42.500Z,1004.84
2018-02-13T02:50:57.363Z,1004.82
2018-02-13T02:53:08.845Z,1004.86
2018-02-13T02:54:17.453Z,1004.82
2018-02-13T02:55:19.823Z,1004.82
2018-02-13T02:56:30.070Z,1004.85
2018-02-13T02:57:36.832Z,1004.80
2018-02-13T02:58:32.543Z,1004.85
2018-02-13T02:59:35.409Z,1004.79
2018-02-13T03:00:34.084Z,1004.74
2018-02-13T03:04:03.187Z,1004.73
2018-02-13T03:05:04.628Z,1004.73
2018-02-13T03:07:17.036Z,1004.66
2018-02-13T03:08:24.514Z,1004.66
2018-02-13T03:09:32.714Z,1004.66
2018-02-13T03:10:35.998Z,1004.61
2018-02-13T03:11:46.448Z,1004.62
2018-02-13T03:12:53.931Z,1004.59
2018-02-13T03:13:46.769Z,1004.58
2018-02-13T03:15:01.216Z,1004.61
2018-02-13T03:16:03.885Z,1004.66
2018-02-13T03:18:06.768Z,1004.60
2018-02-13T03:19:15.484Z,1004.60
2018-02-13T03:22:39.562Z,1004.56
2018-02-13T03:23:40.183Z,1004.54
2018-02-13T03:24:56.683Z,1004.50
2018-02-13T03:26:00.678Z,1004.51
2018-02-13T03:27:08.468Z,1004.51
2018-02-13T03:28:14.313Z,1004.51
2018-02-13T03:29:03.157Z,1004.47
2018-02-13T03:30:14.843Z,1004.47
2018-02-13T03:31:24.166Z,1004.44
2018-02-13T03:32:24.068Z,1004.45
2018-02-13T03:33:33.188Z,1004.45
2018-02-13T03:34:44.667Z,1004.45
2018-02-13T03:36:46.933Z,1004.40
2018-02-13T03:37:49.502Z,1004.43
2018-02-13T03:40:02.524Z,1004.43
2018-02-13T03:41:13.789Z,1004.44
2018-02-13T03:42:06.728Z,1004.40
2018-02-13T03:43:30.186Z,1004.45
2018-02-13T03:44:20.669Z,1004.45
2018-02-13T03:45:22.827Z,1004.41
2018-02-13T03:46:39.525Z,1004.44
2018-02-13T03:47:49.466Z,1004.40
2018-02-13T03:48:56.127Z,1004.38
2018-02-13T03:50:01.255Z,1004.35
2018-02-13T03:50:58.190Z,1004.36
2018-02-13T03:52:11.204Z,1004.35
2018-02-13T03:53:17.149Z,1004.38
2018-02-13T03:55:18.801Z,1004.29
2018-02-13T03:57:36.939Z,1004.26
2018-02-13T03:58:32.133Z,1004.26
2018-02-13T03:59:42.995Z,1004.24
2018-02-13T04:00:51.704Z,1004.27
2018-02-13T04:03:02.574Z,1004.25
2018-02-13T04:04:18.250Z,1004.26
2018-02-13T04:05:11.496Z,1004.26
2018-02-13T04:06:13.357Z,1004.28
2018-02-13T04:07:23.697Z,1004.22
2018-02-13T04:08:21.862Z,1004.25
2018-02-13T04:09:37.333Z,1004.22
2018-02-13T04:10:35.800Z,1004.23
2018-02-13T04:11:42.668Z,1004.27
2018-02-13T04:12:51.585Z,1004.21
2018-02-13T04:13:56.301Z,1004.20
2018-02-13T04:14:53.568Z,1004.21
2018-02-13T04:16:03.998Z,1004.24
2018-02-13T04:17:09.586Z,1004.23
2018-02-13T04:18:17.015Z,1004.24
2018-02-13T04:19:33.826Z,1004.17
2018-02-13T04:20:24.197Z,1004.20
2018-02-13T04:21:31.884Z,1004.19
2018-02-13T04:22:43.360Z,1004.19
2018-02-13T04:23:39.284Z,1004.18
2018-02-13T04:24:43.885Z,1004.19
2018-02-13T04:25:56.086Z,1004.17
2018-02-13T04:26:56.904Z,1004.18
2018-02-13T04:28:09.201Z,1004.15
2018-02-13T04:29:13.612Z,1004.20
2018-02-13T04:30:13.309Z,1004.20
2018-02-13T04:31:20.995Z,1004.19
2018-02-13T04:32:31.755Z,1004.21
2018-02-13T04:33:34.670Z,1004.18
2018-02-13T04:34:43.069Z,1004.17
2018-02-13T04:35:47.035Z,1004.16
2018-02-13T04:36:47.758Z,1004.15
2018-02-13T04:38:08.453Z,1004.18
2018-02-13T04:39:00.370Z,1004.15
2018-02-13T04:40:02.935Z,1004.17
2018-02-13T04:42:13.802Z,1004.17
2018-02-13T04:43:17.802Z,1004.15
2018-02-13T04:44:27.538Z,1004.15
2018-02-13T04:45:30.515Z,1004.14
2018-02-13T04:46:36.770Z,1004.14
2018-02-13T04:47:54.389Z,1004.13
2018-02-13T04:48:47.741Z,1004.11
2018-02-13T04:50:11.300Z,1004.12
2018-02-13T04:51:07.006Z,1004.10
2018-02-13T04:52:21.143Z,1004.08
2018-02-13T04:53:09.068Z,1004.14
2018-02-13T04:54:13.787Z,1004.11
2018-02-13T04:55:24.544Z,1004.07
2018-02-13T04:56:31.310Z,1004.06
2018-02-13T04:57:31.111Z,1004.06
2018-02-13T04:58:38.594Z,1004.06
2018-02-13T04:59:44.437Z,1004.08
2018-02-13T05:00:46.393Z,1004.04
2018-02-13T05:02:07.288Z,1004.07
2018-02-13T05:02:58.179Z,1004.09
2018-02-13T05:04:06.792Z,1004.10
2018-02-13T05:05:21.546Z,1004.07
2018-02-13T05:06:22.574Z,1004.09
2018-02-13T05:07:28.420Z,1004.02
2018-02-13T05:08:26.887Z,1004.04
2018-02-13T05:09:35.086Z,1004.04
2018-02-13T05:10:38.579Z,1003.98
2018-02-13T05:11:36.534Z,1004.02
2018-02-13T05:12:48.447Z,1003.98
2018-02-13T05:13:58.052Z,1003.98
2018-02-13T05:14:59.492Z,1003.99
2018-02-13T05:16:07.797Z,1003.97
2018-02-13T05:17:13.843Z,1003.98
2018-02-13T05:18:14.976Z,1003.96
2018-02-13T05:19:21.743Z,1003.94
2018-02-13T05:20:20.008Z,1003.99
2018-02-13T05:21:38.140Z,1004.02
2018-02-13T05:22:55.357Z,1003.97
2018-02-13T05:23:49.215Z,1003.95
2018-02-13T05:24:57.618Z,1003.97
2018-02-13T05:25:50.559Z,1003.96
2018-02-13T05:27:18.520Z,1003.96
2018-02-13T05:28:15.456Z,1003.93
2018-02-13T05:29:19.560Z,1003.93
2018-02-13T05:30:40.047Z,1003.95
2018-02-13T05:31:39.459Z,1003.97
2018-02-13T05:32:48.559Z,1003.96
2018-02-13T05:33:36.792Z,1003.97
2018-02-13T05:34:39.664Z,1003.94
2018-02-13T05:35:49.714Z,1003.93
2018-02-13T05:37:59.039Z,1003.92
2018-02-13T05:39:06.080Z,1003.88
2018-02-13T05:40:11.033Z,1003.87
2018-02-13T05:41:10.835Z,1003.86
2018-02-13T05:42:24.362Z,1003.89
2018-02-13T05:43:22.319Z,1003.87
2018-02-13T05:44:28.163Z,1003.91
2018-02-13T05:45:27.658Z,1003.88
2018-02-13T05:46:42.819Z,1003.93
2018-02-13T05:47:54.608Z,1003.89
2018-02-13T05:48:54.507Z,1003.93
2018-02-13T05:49:54.313Z,1003.91
2018-02-13T05:51:02.921Z,1003.91
2018-02-13T05:53:10.612Z,1003.92
2018-02-13T05:54:14.724Z,1003.93
2018-02-13T05:55:25.577Z,1003.91
2018-02-13T05:57:33.889Z,1003.91
2018-02-13T05:58:43.721Z,1003.90
2018-02-13T06:01:05.856Z,1003.88
2018-02-13T06:01:56.585Z,1003.88
2018-02-13T06:03:12.118Z,1003.88
2018-02-13T06:04:14.272Z,1003.93
2018-02-13T06:05:10.183Z,1003.91
2018-02-13T06:06:20.738Z,1003.92
2018-02-13T06:07:18.799Z,1003.90
2018-02-13T06:08:26.691Z,1003.90
2018-02-13T06:09:45.539Z,1003.92
2018-02-13T06:10:54.456Z,1003.96
2018-02-13T06:11:43.711Z,1003.91
2018-02-13T06:12:50.175Z,1003.89
2018-02-13T06:14:01.961Z,1003.92
2018-02-13T06:15:04.534Z,1003.86
2018-02-13T06:18:16.008Z,1003.87
2018-02-13T06:19:18.481Z,1003.86
2018-02-13T06:20:35.377Z,1003.87
2018-02-13T06:21:32.730Z,1003.87
2018-02-13T06:22:50.853Z,1003.84
2018-02-13T06:23:54.035Z,1003.87
2018-02-13T06:25:02.747Z,1003.88
2018-02-13T06:26:01.728Z,1003.84
2018-02-13T06:28:13.008Z,1003.86
2018-02-13T06:29:23.974Z,1003.87
2018-02-13T06:30:20.700Z,1003.91
2018-02-13T06:31:31.366Z,1003.87
2018-02-13T06:32:40.272Z,1003.85
2018-02-13T06:33:40.793Z,1003.83
2018-02-13T06:34:39.678Z,1003.85
2018-02-13T06:35:46.645Z,1003.81
2018-02-13T06:37:04.469Z,1003.87
2018-02-13T06:37:58.434Z,1003.87
2018-02-13T06:39:01.518Z,1003.86
2018-02-13T06:40:09.712Z,1003.86
2018-02-13T06:42:29.286Z,1003.81
2018-02-13T06:43:27.448Z,1003.81
2018-02-13T06:44:31.450Z,1003.78
2018-02-13T06:45:40.778Z,1003.76
2018-02-13T06:46:47.743Z,1003.78
2018-02-13T06:48:56.155Z,1003.72
2018-02-13T06:50:08.782Z,1003.74
2018-02-13T06:51:05.692Z,1003.71
2018-02-13T06:52:08.770Z,1003.73
2018-02-13T06:53:19.120Z,1003.71
2018-02-13T06:54:32.144Z,1003.68
2018-02-13T06:55:50.060Z,1003.72
2018-02-13T06:56:33.682Z,1003.69
2018-02-13T06:57:49.571Z,1003.70
2018-02-13T06:58:43.529Z,1003.72
2018-02-13T06:59:56.950Z,1003.72
2018-02-13T07:00:55.726Z,1003.71
2018-02-13T07:02:12.527Z,1003.72
2018-02-13T07:03:06.288Z,1003.70
2018-02-13T07:04:15.408Z,1003.75
2018-02-13T07:05:15.723Z,1003.74
2018-02-13T07:06:24.131Z,1003.68
2018-02-13T07:07:29.156Z,1003.72
2018-02-13T07:08:37.255Z,1003.68
2018-02-13T07:09:46.781Z,1003.71
2018-02-13T07:10:48.124Z,1003.74
2018-02-13T07:11:56.930Z,1003.73
2018-02-13T07:12:57.244Z,1003.70
2018-02-13T07:15:14.255Z,1003.72
2018-02-13T07:16:13.445Z,1003.66
2018-02-13T07:17:32.703Z,1003.66
2018-02-13T07:18:17.043Z,1003.67
2018-02-13T07:20:37.229Z,1003.71
2018-02-13T07:21:33.755Z,1003.65
2018-02-13T07:22:49.939Z,1003.64
2018-02-13T07:23:58.447Z,1003.66
2018-02-13T07:24:59.580Z,1003.66
2018-02-13T07:26:02.046Z,1003.65
2018-02-13T07:27:00.312Z,1003.69
2018-02-13T07:29:16.506Z,1003.69
2018-02-13T07:30:20.709Z,1003.71
2018-02-13T07:31:31.172Z,1003.73
2018-02-13T07:32:46.630Z,1003.68
2018-02-13T07:33:43.975Z,1003.68
2018-02-13T07:34:53.407Z,1003.71
2018-02-13T07:35:45.320Z,1003.73
2018-02-13T07:37:59.057Z,1003.70
2018-02-13T07:39:06.744Z,1003.70
2018-02-13T07:40:10.948Z,1003.65
2018-02-13T07:42:29.395Z,1003.71
2018-02-13T07:43:28.890Z,1003.70
2018-02-13T07:44:44.602Z,1003.69
2018-02-13T07:45:34.638Z,1003.69
2018-02-13T07:47:03.214Z,1003.70
2018-02-13T07:47:47.256Z,1003.70
2018-02-13T07:48:56.267Z,1003.69
2018-02-13T07:50:13.679Z,1003.66
2018-02-13T07:51:05.290Z,1003.68
2018-02-13T07:52:24.252Z,1003.69
2018-02-13T07:53:20.971Z,1003.69
2018-02-13T07:54:23.847Z,1003.66
2018-02-13T07:55:26.617Z,1003.65
2018-02-13T07:57:38.717Z,1003.67
2018-02-13T07:59:49.483Z,1003.70
2018-02-13T08:00:58.396Z,1003.65
2018-02-13T08:02:05.267Z,1003.67
2018-02-13T08:04:15.827Z,1003.70
2018-02-13T08:05:23.717Z,1003.70
2018-02-13T08:06:32.430Z,1003.72
2018-02-13T08:07:29.364Z,1003.67
2018-02-13T08:08:40.229Z,1003.68
2018-02-13T08:10:45.772Z,1003.67
2018-02-13T08:11:55.303Z,1003.67
2018-02-13T08:13:01.246Z,1003.68
2018-02-13T08:15:13.140Z,1003.67
2018-02-13T08:17:35.579Z,1003.66
2018-02-13T08:18:39.076Z,1003.69
2018-02-13T08:19:47.880Z,1003.73
2018-02-13T08:20:42.978Z,1003.66
2018-02-13T08:21:47.790Z,1003.67
2018-02-13T08:23:03.978Z,1003.65
2018-02-13T08:23:58.044Z,1003.71
2018-02-13T08:25:16.693Z,1003.68
2018-02-13T08:26:17.311Z,1003.72
2018-02-13T08:27:29.205Z,1003.68
2018-02-13T08:29:32.383Z,1003.68
2018-02-13T08:30:28.090Z,1003.64
2018-02-13T08:31:39.160Z,1003.63
2018-02-13T08:32:40.913Z,1003.63
2018-02-13T08:33:55.351Z,1003.57
2018-02-13T08:35:14.413Z,1003.56
2018-02-13T08:36:15.229Z,1003.57
2018-02-13T08:37:21.176Z,1003.56
2018-02-13T08:38:26.612Z,1003.54
2018-02-13T08:39:30.509Z,1003.57
2018-02-13T08:40:39.328Z,1003.56
2018-02-13T08:41:29.090Z,1003.49
2018-02-13T08:43:00.535Z,1003.54
2018-02-13T08:44:05.357Z,1003.52
2018-02-13T08:44:51.740Z,1003.52
2018-02-13T08:47:24.531Z,1003.47
2018-02-13T08:48:14.700Z,1003.48
2018-02-13T08:49:29.149Z,1003.50
2018-02-13T08:51:30.694Z,1003.54
2018-02-13T08:52:54.048Z,1003.50
2018-02-13T08:53:41.878Z,1003.51
2018-02-13T08:54:25.500Z,1003.51
2018-02-13T08:56:56.644Z,1003.49
2018-02-13T08:59:21.023Z,1003.52
2018-02-13T09:00:09.048Z,1003.49
2018-02-13T09:01:05.268Z,1003.54
2018-02-13T09:02:30.464Z,1003.53
2018-02-13T09:05:53.936Z,1003.54
2018-02-13T09:06:34.280Z,1003.55
2018-02-13T09:07:54.671Z,1003.55
2018-02-13T09:09:06.244Z,1003.53
2018-02-13T09:10:16.696Z,1003.52
2018-02-13T09:11:11.992Z,1003.56
2018-02-13T09:11:57.049Z,1003.49
2018-02-13T09:12:57.464Z,1003.54
2018-02-13T09:14:30.243Z,1003.49
2018-02-13T09:15:38.646Z,1003.48
2018-02-13T09:16:31.077Z,1003.49
2018-02-13T09:17:32.310Z,1003.44
2018-02-13T09:19:41.845Z,1003.48
2018-02-13T09:21:59.883Z,1003.47
2018-02-13T09:22:58.046Z,1003.42
2018-02-13T09:25:13.830Z,1003.41
2018-02-13T09:26:12.199Z,1003.43
2018-02-13T09:27:14.568Z,1003.45
2018-02-13T09:28:17.947Z,1003.40
2018-02-13T09:29:42.019Z,1003.35
2018-02-13T09:30:46.326Z,1003.41
2018-02-13T09:31:35.683Z,1003.41
2018-02-13T09:32:30.160Z,1003.37
2018-02-13T09:33:50.139Z,1003.35
2018-02-13T09:34:53.829Z,1003.38
2018-02-13T09:36:11.552Z,1003.36
2018-02-13T09:37:04.391Z,1003.36
2018-02-13T09:38:09.009Z,1003.34
2018-02-13T09:39:17.003Z,1003.35
2018-02-13T09:40:27.763Z,1003.40
2018-02-13T09:41:25.619Z,1003.34
2018-02-13T09:43:43.959Z,1003.34
2018-02-13T09:44:44.791Z,1003.33
2018-02-13T09:46:07.734Z,1003.31
2018-02-13T09:46:58.935Z,1003.31
2018-02-13T09:47:54.439Z,1003.29
2018-02-13T09:49:06.832Z,1003.28
2018-02-13T09:50:11.240Z,1003.24
2018-02-13T09:51:13.099Z,1003.27
2018-02-13T09:52:25.185Z,1003.25
2018-02-13T09:53:30.012Z,1003.23
2018-02-13T09:54:35.640Z,1003.23
2018-02-13T09:55:51.625Z,1003.27
2018-02-13T09:56:45.281Z,1003.20
2018-02-13T09:57:51.124Z,1003.23
2018-02-13T09:58:54.203Z,1003.23
2018-02-13T09:59:56.572Z,1003.28
2018-02-13T10:01:12.138Z,1003.19
2018-02-13T10:03:25.565Z,1003.21
2018-02-13T10:04:27.110Z,1003.19
2018-02-13T10:05:35.823Z,1003.17
2018-02-13T10:06:27.634Z,1003.25
2018-02-13T10:07:26.309Z,1003.21
2018-02-13T10:08:48.131Z,1003.23
2018-02-13T10:09:53.562Z,1003.23
2018-02-13T10:10:51.827Z,1003.20
2018-02-13T10:13:10.686Z,1003.20
2018-02-13T10:14:18.984Z,1003.19
2018-02-13T10:15:11.619Z,1003.17
2018-02-13T10:16:18.386Z,1003.20
2018-02-13T10:17:26.378Z,1003.20
2018-02-13T10:18:34.888Z,1003.21
2018-02-13T10:19:34.691Z,1003.21
2018-02-13T10:20:38.177Z,1003.16
2018-02-13T10:21:50.880Z,1003.19
2018-02-13T10:22:54.779Z,1003.18
2018-02-13T10:25:06.159Z,1003.17
2018-02-13T10:26:08.016Z,1003.12
2018-02-13T10:27:20.099Z,1003.15
2018-02-13T10:28:27.376Z,1003.15
2018-02-13T10:29:26.262Z,1003.14
2018-02-13T10:30:39.372Z,1003.14
2018-02-13T10:31:33.438Z,1003.10
2018-02-13T10:32:41.740Z,1003.09
2018-02-13T10:33:58.644Z,1003.07
2018-02-13T10:34:56.910Z,1003.11
2018-02-13T10:37:01.227Z,1003.06
2018-02-13T10:38:14.134Z,1003.08
2018-02-13T10:39:11.685Z,1003.05
2018-02-13T10:40:23.365Z,1003.04
2018-02-13T10:41:25.524Z,1003.02
2018-02-13T10:42:40.480Z,1003.05
2018-02-13T10:43:40.694Z,1002.99
2018-02-13T10:44:48.284Z,1003.02
2018-02-13T10:45:45.568Z,1002.97
2018-02-13T10:47:10.103Z,1003.01
2018-02-13T10:48:06.168Z,1002.96
2018-02-13T10:49:12.265Z,1002.94
2018-02-13T10:51:11.468Z,1002.95
2018-02-13T10:52:23.555Z,1002.94
2018-02-13T10:53:27.552Z,1002.92
2018-02-13T10:54:34.423Z,1002.86
2018-02-13T10:55:38.120Z,1002.86
2018-02-13T10:58:49.502Z,1002.85
2018-02-13T11:01:11.943Z,1002.79
2018-02-13T11:02:10.309Z,1002.83
2018-02-13T11:03:14.002Z,1002.75
2018-02-13T11:04:19.439Z,1002.84
2018-02-13T11:05:33.487Z,1002.76
2018-02-13T11:06:26.212Z,1002.73
2018-02-13T11:07:36.881Z,1002.76
2018-02-13T11:08:44.860Z,1002.75
2018-02-13T11:10:48.357Z,1002.72
2018-02-13T11:12:07.204Z,1002.72
2018-02-13T11:13:06.392Z,1002.70
2018-02-13T11:14:12.235Z,1002.72
2018-02-13T11:15:21.765Z,1002.65
2018-02-13T11:16:21.777Z,1002.65
2018-02-13T11:17:34.172Z,1002.64
2018-02-13T11:18:27.418Z,1002.65
2018-02-13T11:19:36.129Z,1002.62
2018-02-13T11:20:37.679Z,1002.58
2018-02-13T11:21:49.865Z,1002.58
2018-02-13T11:22:56.630Z,1002.60
2018-02-13T11:24:01.349Z,1002.52
2018-02-13T11:26:14.102Z,1002.53
2018-02-13T11:28:19.444Z,1002.52
2018-02-13T11:31:36.213Z,1002.47
2018-02-13T11:33:55.172Z,1002.41
2018-02-13T11:34:53.747Z,1002.40
2018-02-13T11:35:55.594Z,1002.43
2018-02-13T11:37:12.309Z,1002.43
2018-02-13T11:38:13.939Z,1002.45
2018-02-13T11:39:17.734Z,1002.40
2018-02-13T11:40:24.609Z,1002.42
2018-02-13T11:41:34.454Z,1002.43
2018-02-13T11:42:35.881Z,1002.42
2018-02-13T11:43:36.296Z,1002.38
2018-02-13T11:44:51.972Z,1002.42
2018-02-13T11:45:49.321Z,1002.39
2018-02-13T11:47:08.881Z,1002.39
2018-02-13T11:48:06.539Z,1002.46
2018-02-13T11:49:13.810Z,1002.36
2018-02-13T11:50:11.159Z,1002.43
2018-02-13T11:51:28.365Z,1002.38
2018-02-13T11:52:31.856Z,1002.36
2018-02-13T11:53:41.596Z,1002.36
2018-02-13T11:54:38.428Z,1002.31
2018-02-13T11:55:52.662Z,1002.29
2018-02-13T11:56:54.213Z,1002.21
2018-02-13T11:57:59.128Z,1002.17
2018-02-13T11:59:17.570Z,1002.18
2018-02-13T12:00:14.816Z,1002.19
2018-02-13T12:01:20.448Z,1002.21
2018-02-13T12:02:37.249Z,1002.20
2018-02-13T12:03:38.083Z,1002.18
2018-02-13T12:04:44.942Z,1002.15
2018-02-13T12:05:40.957Z,1002.09
2018-02-13T12:06:59.600Z,1002.10
2018-02-13T12:08:07.396Z,1002.15
2018-02-13T12:09:08.424Z,1002.06
2018-02-13T12:10:05.254Z,1002.12
2018-02-13T12:11:40.906Z,1002.11
2018-02-13T12:12:42.849Z,1002.07
2018-02-13T12:13:37.940Z,1002.08
2018-02-13T12:14:30.574Z,1002.05
2018-02-13T12:15:53.314Z,1002.00
2018-02-13T12:16:58.955Z,1002.03
2018-02-13T12:18:13.662Z,1002.02
2018-02-13T12:19:12.802Z,1002.00
2018-02-13T12:19:48.324Z,1001.97
2018-02-13T12:21:40.145Z,1001.98
2018-02-13T12:22:30.220Z,1001.91
2018-02-13T12:25:16.941Z,1001.89
2018-02-13T12:26:39.671Z,1001.95
2018-02-13T12:27:16.430Z,1001.93
2018-02-13T12:28:16.541Z,1001.94
2018-02-13T12:29:37.334Z,1001.95
2018-02-13T12:30:40.517Z,1001.85
2018-02-13T12:31:42.263Z,1001.90
2018-02-13T12:33:11.867Z,1001.94
2018-02-13T12:35:00.615Z,1001.89
2018-02-13T12:37:49.480Z,1001.97
2018-02-13T12:39:09.869Z,1001.99
2018-02-13T12:39:43.958Z,1001.93
2018-02-13T12:41:18.685Z,1001.89
2018-02-13T12:42:02.505Z,1001.91
2018-02-13T12:43:17.466Z,1001.87
2018-02-13T12:45:10.617Z,1001.85
2018-02-13T12:46:19.124Z,1001.85
2018-02-13T12:48:29.788Z,1001.86
2018-02-13T12:49:34.613Z,1001.86
2018-02-13T12:50:35.235Z,1001.88
2018-02-13T12:51:39.128Z,1001.91
2018-02-13T12:52:48.861Z,1001.91
2018-02-13T12:53:56.856Z,1001.91
2018-02-13T12:55:03.316Z,1001.93
2018-02-13T12:56:15.098Z,1001.91
2018-02-13T12:57:10.597Z,1001.93
2018-02-13T12:58:21.664Z,1001.96
2018-02-13T12:59:33.345Z,1001.88
2018-02-13T13:00:53.217Z,1001.90
2018-02-13T13:01:27.731Z,1001.94
2018-02-13T13:02:44.428Z,1001.91
2018-02-13T13:03:36.036Z,1001.93
2018-02-13T13:04:51.915Z,1001.96
2018-02-13T13:06:04.927Z,1001.91
2018-02-13T13:07:14.407Z,1001.93
2018-02-13T13:08:10.779Z,1001.92
2018-02-13T13:09:11.604Z,1001.90
2018-02-13T13:10:19.187Z,1001.81
2018-02-13T13:11:27.182Z,1001.81
2018-02-13T13:12:25.246Z,1001.87
2018-02-13T13:13:33.648Z,1001.83
2018-02-13T13:14:52.300Z,1001.84
2018-02-13T13:15:59.057Z,1001.86
2018-02-13T13:17:10.746Z,1001.89
2018-02-13T13:19:04.415Z,1001.81
2018-02-13T13:20:15.063Z,1001.76
2018-02-13T13:21:18.958Z,1001.64
2018-02-13T13:22:22.959Z,1001.66
2018-02-13T13:23:36.278Z,1001.67
2018-02-13T13:24:25.534Z,1001.71
2018-02-13T13:25:34.141Z,1001.73
2018-02-13T13:26:52.784Z,1001.66
2018-02-13T13:27:54.328Z,1001.58
2018-02-13T13:28:56.898Z,1001.58
2018-02-13T13:29:52.909Z,1001.60
2018-02-13T13:31:04.178Z,1001.60
2018-02-13T13:32:23.746Z,1001.61
2018-02-13T13:34:17.921Z,1001.48
2018-02-13T13:35:30.832Z,1001.51
2018-02-13T13:36:37.011Z,1001.54
2018-02-13T13:38:34.846Z,1001.54
2018-02-13T13:39:43.661Z,1001.49
2018-02-13T13:40:55.142Z,1001.55
2018-02-13T13:41:59.545Z,1001.51
2018-02-13T13:42:53.919Z,1001.59
2018-02-13T13:44:13.794Z,1001.60
2018-02-13T13:45:08.167Z,1001.56
2018-02-13T13:47:33.474Z,1001.58
2018-02-13T13:48:29.385Z,1001.54
2018-02-13T13:49:45.477Z,1001.52
2018-02-13T13:50:43.121Z,1001.51
2018-02-13T13:51:47.327Z,1001.48
2018-02-13T13:52:53.273Z,1001.50
2018-02-13T13:53:51.542Z,1001.50
2018-02-13T13:55:02.911Z,1001.51
2018-02-13T13:56:02.408Z,1001.49
2018-02-13T13:57:20.027Z,1001.51
2018-02-13T13:59:45.436Z,1001.54
2018-02-13T14:00:42.270Z,1001.50
2018-02-13T14:01:45.143Z,1001.43
2018-02-13T14:03:50.891Z,1001.51
2018-02-13T14:05:04.006Z,1001.49
2018-02-13T14:06:06.065Z,1001.38
2018-02-13T14:07:16.310Z,1001.48
2018-02-13T14:08:18.671Z,1001.47
2018-02-13T14:11:40.402Z,1001.39
2018-02-13T14:12:53.313Z,1001.42
2018-02-13T14:13:54.955Z,1001.38
2018-02-13T14:14:50.865Z,1001.39
2018-02-13T14:15:53.846Z,1001.36
2018-02-13T14:16:51.698Z,1001.34
2018-02-13T14:18:08.807Z,1001.31
2018-02-13T14:19:23.048Z,1001.29
2018-02-13T14:20:29.506Z,1001.26
2018-02-13T14:21:19.582Z,1001.24
2018-02-13T14:22:39.146Z,1001.23
2018-02-13T14:23:35.374Z,1001.26
2018-02-13T14:24:51.858Z,1001.22
2018-02-13T14:25:47.978Z,1001.27
2018-02-13T14:26:49.728Z,1001.28
2018-02-13T14:28:53.932Z,1001.16
2018-02-13T14:31:03.574Z,1001.19
2018-02-13T14:32:21.707Z,1001.15
2018-02-13T14:33:26.116Z,1001.13
2018-02-13T14:34:19.670Z,1001.17
2018-02-13T14:35:33.092Z,1001.12
2018-02-13T14:37:36.690Z,1001.07
2018-02-13T14:38:50.116Z,1001.01
2018-02-13T14:39:46.853Z,1001.02
2018-02-13T14:40:53.509Z,1001.03
2018-02-13T14:41:55.766Z,1001.00
2018-02-13T14:42:59.253Z,1000.97
2018-02-13T14:44:16.565Z,1001.03
2018-02-13T14:45:13.201Z,1000.93
2018-02-13T14:46:17.092Z,1000.98
2018-02-13T14:47:53.563Z,1000.96